This is the latest recevied weather packets stored in our database for station/object WE8L. If no packets are shown the sender has not sent any weather packets the latest 10 day(s).
| Time | Temp. | Humidity | Pressure | Rain* | Wind** | Luminosity | Snow |
|---|---|---|---|---|---|---|---|
| 1777620536 | 8.33° C | 74% | 1015.8 hPa | 0 mm | - | 0 W/m² | - |
| 1777620233 | 8.33° C | 73% | 1016 hPa | 0 mm | - | 0 W/m² | - |
| 1777619930 | 8.33° C | 72% | 1016 hPa | 0 mm | - | 0 W/m² | - |
| 1777619625 | 8.89° C | 70% | 1015.9 hPa | 0 mm | - | 0 W/m² | - |
| 1777619320 | 8.89° C | 68% | 1015.9 hPa | 0 mm | - | 0 W/m² | - |
| 1777619020 | 9.44° C | 66% | 1015.8 hPa | 0 mm | - | 0 W/m² | - |
| 1777618715 | 9.44° C | 65% | 1015.8 hPa | 0 mm | - | 0 W/m² | - |
| 1777618411 | 9.44° C | 64% | 1015.9 hPa | 0 mm | - | 0 W/m² | - |
| 1777618108 | 10° C | 64% | 1015.9 hPa | 0 mm | - | 0 W/m² | - |
| 1777617805 | 9.44° C | 64% | 1015.8 hPa | 0 mm | - | 0 W/m² | - |
| 1777617505 | 9.44° C | 65% | 1016.2 hPa | 0 mm | - | 0 W/m² | - |
| 1777617202 | 9.44° C | 67% | 1016.3 hPa | 0 mm | - | 0 W/m² | - |
| 1777616898 | 8.89° C | 68% | 1016.3 hPa | 0 mm | - | 0 W/m² | - |
| 1777616594 | 8.33° C | 72% | 1016.5 hPa | 0 mm | - | 0 W/m² | - |
| 1777616290 | 7.78° C | 78% | 1016.5 hPa | 0 mm | - | 0 W/m² | - |
| 1777615987 | 7.78° C | 80% | 1016.6 hPa | 0 mm | - | 0 W/m² | - |
| 1777615683 | 7.78° C | 80% | 1016.7 hPa | 0 mm | - | 0 W/m² | - |
| 1777615380 | 7.78° C | 80% | 1016.7 hPa | 0 mm | - | 0 W/m² | - |
| 1777615079 | 7.78° C | 78% | 1017 hPa | 0 mm | - | 0 W/m² | - |
| 1777614776 | 8.33° C | 77% | 1016.9 hPa | 0 mm | - | 0 W/m² | - |
| 1777614476 | 8.33° C | 76% | 1017 hPa | 0 mm | - | 0 W/m² | - |
| 1777614173 | 8.89° C | 75% | 1016.9 hPa | 0 mm | - | 0 W/m² | - |
| 1777613873 | 8.89° C | 72% | 1017 hPa | 0 mm | - | 0 W/m² | - |
| 1777613571 | 8.89° C | 73% | 1016.7 hPa | 0 mm | - | 0 W/m² | - |
| 1777613267 | 8.89° C | 70% | 1016.7 hPa | 0 mm | - | 0 W/m² | - |
* Rain latest hour (hover to see other rain measurements)
** Current wind speed in m/s (hover to see current wind gust speed)